sensor_id;sensor_type;location;lat;lon;timestamp;temperature;humidity
59857;DHT22;45733;52.668;6.860;2023-02-01T00:04:14;5.80;99.90
59857;DHT22;45733;52.668;6.860;2023-02-01T00:10:08;5.90;99.90
59857;DHT22;45733;52.668;6.860;2023-02-01T00:12:34;5.80;99.90
59857;DHT22;45733;52.668;6.860;2023-02-01T00:15:18;5.90;99.90
59857;DHT22;45733;52.668;6.860;2023-02-01T00:22:02;6.00;99.90
59857;DHT22;45733;52.668;6.860;2023-02-01T00:24:39;6.00;99.90
59857;DHT22;45733;52.668;6.860;2023-02-01T00:27:25;6.00;99.90
59857;DHT22;45733;52.668;6.860;2023-02-01T00:36:36;5.90;99.90
59857;DHT22;45733;52.668;6.860;2023-02-01T00:39:05;5.90;99.90
59857;DHT22;45733;52.668;6.860;2023-02-01T00:41:33;5.90;99.90
59857;DHT22;45733;52.668;6.860;2023-02-01T00:43:59;6.00;99.90
59857;DHT22;45733;52.668;6.860;2023-02-01T00:46:38;6.00;99.90
59857;DHT22;45733;52.668;6.860;2023-02-01T00:49:29;6.00;99.90
59857;DHT22;45733;52.668;6.860;2023-02-01T00:51:55;6.00;99.90
59857;DHT22;45733;52.668;6.860;2023-02-01T00:54:32;6.10;99.90
59857;DHT22;45733;52.668;6.860;2023-02-01T00:57:02;6.10;99.90
59857;DHT22;45733;52.668;6.860;2023-02-01T00:59:34;6.10;99.90
59857;DHT22;45733;52.668;6.860;2023-02-01T01:02:07;6.10;99.90
59857;DHT22;45733;52.668;6.860;2023-02-01T01:04:40;6.10;99.90
59857;DHT22;45733;52.668;6.860;2023-02-01T01:07:16;6.10;99.90
59857;DHT22;45733;52.668;6.860;2023-02-01T01:10:10;6.10;99.90
59857;DHT22;45733;52.668;6.860;2023-02-01T01:13:28;6.10;99.90
59857;DHT22;45733;52.668;6.860;2023-02-01T01:16:19;6.10;99.90
59857;DHT22;45733;52.668;6.860;2023-02-01T01:19:19;6.10;99.90
59857;DHT22;45733;52.668;6.860;2023-02-01T01:22:16;6.10;99.90
59857;DHT22;45733;52.668;6.860;2023-02-01T01:24:51;6.00;99.90
59857;DHT22;45733;52.668;6.860;2023-02-01T01:27:22;6.10;99.90
59857;DHT22;45733;52.668;6.860;2023-02-01T01:29:59;6.20;99.90
59857;DHT22;45733;52.668;6.860;2023-02-01T01:32:31;6.10;99.90
59857;DHT22;45733;52.668;6.860;2023-02-01T01:35:03;6.20;99.90
59857;DHT22;45733;52.668;6.860;2023-02-01T01:37:32;6.20;99.90
59857;DHT22;45733;52.668;6.860;2023-02-01T01:40:04;6.30;99.90
59857;DHT22;45733;52.668;6.860;2023-02-01T01:42:30;6.30;99.90
59857;DHT22;45733;52.668;6.860;2023-02-01T01:50:50;6.30;99.90
59857;DHT22;45733;52.668;6.860;2023-02-01T01:56:11;6.30;99.90
59857;DHT22;45733;52.668;6.860;2023-02-01T01:58:40;6.40;99.90
59857;DHT22;45733;52.668;6.860;2023-02-01T02:01:17;6.40;99.90
59857;DHT22;45733;52.668;6.860;2023-02-01T02:03:44;6.40;99.90
59857;DHT22;45733;52.668;6.860;2023-02-01T02:06:36;6.40;99.90
59857;DHT22;45733;52.668;6.860;2023-02-01T02:09:15;6.40;99.90
59857;DHT22;45733;52.668;6.860;2023-02-01T02:12:05;6.40;99.90
59857;DHT22;45733;52.668;6.860;2023-02-01T02:14:40;6.40;99.90
59857;DHT22;45733;52.668;6.860;2023-02-01T02:23:47;6.50;99.90
59857;DHT22;45733;52.668;6.860;2023-02-01T02:35:33;6.60;99.90
59857;DHT22;45733;52.668;6.860;2023-02-01T02:38:26;6.60;99.90
59857;DHT22;45733;52.668;6.860;2023-02-01T02:44:04;6.60;99.90
59857;DHT22;45733;52.668;6.860;2023-02-01T02:46:59;6.60;99.90
59857;DHT22;45733;52.668;6.860;2023-02-01T02:49:56;6.50;99.90
59857;DHT22;45733;52.668;6.860;2023-02-01T02:52:56;6.50;99.90
59857;DHT22;45733;52.668;6.860;2023-02-01T02:55:45;6.50;99.90
59857;DHT22;45733;52.668;6.860;2023-02-01T02:58:19;6.50;99.90
59857;DHT22;45733;52.668;6.860;2023-02-01T03:01:04;6.50;99.90
59857;DHT22;45733;52.668;6.860;2023-02-01T03:03:52;6.50;99.90
59857;DHT22;45733;52.668;6.860;2023-02-01T03:06:34;6.50;99.90
59857;DHT22;45733;52.668;6.860;2023-02-01T03:09:03;6.50;99.90
59857;DHT22;45733;52.668;6.860;2023-02-01T03:11:36;6.50;99.90
59857;DHT22;45733;52.668;6.860;2023-02-01T03:14:31;6.50;99.90
59857;DHT22;45733;52.668;6.860;2023-02-01T03:17:07;6.50;99.90
59857;DHT22;45733;52.668;6.860;2023-02-01T03:22:29;6.50;99.90
59857;DHT22;45733;52.668;6.860;2023-02-01T03:25:11;6.50;99.90
59857;DHT22;45733;52.668;6.860;2023-02-01T03:28:10;6.40;99.90
59857;DHT22;45733;52.668;6.860;2023-02-01T03:30:45;6.30;99.90
59857;DHT22;45733;52.668;6.860;2023-02-01T03:33:25;6.30;99.90
59857;DHT22;45733;52.668;6.860;2023-02-01T03:36:13;6.30;99.90
59857;DHT22;45733;52.668;6.860;2023-02-01T03:41:51;6.50;99.90
59857;DHT22;45733;52.668;6.860;2023-02-01T03:47:14;6.50;99.90
59857;DHT22;45733;52.668;6.860;2023-02-01T03:50:11;6.50;99.90
59857;DHT22;45733;52.668;6.860;2023-02-01T03:53:02;6.50;99.90
59857;DHT22;45733;52.668;6.860;2023-02-01T03:55:28;6.50;99.90
59857;DHT22;45733;52.668;6.860;2023-02-01T03:58:01;6.50;99.90
59857;DHT22;45733;52.668;6.860;2023-02-01T04:00:29;6.50;99.90
59857;DHT22;45733;52.668;6.860;2023-02-01T04:03:03;6.60;99.90
59857;DHT22;45733;52.668;6.860;2023-02-01T04:05:32;6.50;99.90
59857;DHT22;45733;52.668;6.860;2023-02-01T04:08:01;6.50;99.90
59857;DHT22;45733;52.668;6.860;2023-02-01T04:10:33;6.60;99.90
59857;DHT22;45733;52.668;6.860;2023-02-01T04:12:59;6.60;99.90
59857;DHT22;45733;52.668;6.860;2023-02-01T04:16:04;6.60;99.90
59857;DHT22;45733;52.668;6.860;2023-02-01T04:18:44;6.50;99.90
59857;DHT22;45733;52.668;6.860;2023-02-01T04:21:36;6.60;99.90
59857;DHT22;45733;52.668;6.860;2023-02-01T04:24:20;6.50;99.90
59857;DHT22;45733;52.668;6.860;2023-02-01T04:26:48;6.50;99.90
59857;DHT22;45733;52.668;6.860;2023-02-01T04:29:23;6.50;99.90
59857;DHT22;45733;52.668;6.860;2023-02-01T04:31:58;6.50;99.90
59857;DHT22;45733;52.668;6.860;2023-02-01T04:34:29;6.50;99.90
59857;DHT22;45733;52.668;6.860;2023-02-01T04:37:04;6.50;99.90
59857;DHT22;45733;52.668;6.860;2023-02-01T04:39:38;6.50;99.90
59857;DHT22;45733;52.668;6.860;2023-02-01T04:42:10;6.50;99.90
59857;DHT22;45733;52.668;6.860;2023-02-01T04:44:42;6.50;99.90
59857;DHT22;45733;52.668;6.860;2023-02-01T04:47:14;6.50;99.90
59857;DHT22;45733;52.668;6.860;2023-02-01T04:49:41;6.60;99.90
59857;DHT22;45733;52.668;6.860;2023-02-01T04:52:10;6.60;99.90
59857;DHT22;45733;52.668;6.860;2023-02-01T04:54:37;6.60;99.90
59857;DHT22;45733;52.668;6.860;2023-02-01T04:57:17;6.60;99.90
59857;DHT22;45733;52.668;6.860;2023-02-01T04:59:43;6.60;99.90
59857;DHT22;45733;52.668;6.860;2023-02-01T05:02:09;6.70;99.90
59857;DHT22;45733;52.668;6.860;2023-02-01T05:04:37;6.60;99.90
59857;DHT22;45733;52.668;6.860;2023-02-01T05:07:10;6.60;99.90
59857;DHT22;45733;52.668;6.860;2023-02-01T05:09:36;6.60;99.90
59857;DHT22;45733;52.668;6.860;2023-02-01T05:15:47;6.60;99.90
59857;DHT22;45733;52.668;6.860;2023-02-01T05:18:13;6.60;99.90
59857;DHT22;45733;52.668;6.860;2023-02-01T05:20:45;6.60;99.90
59857;DHT22;45733;52.668;6.860;2023-02-01T05:23:37;6.50;99.90
59857;DHT22;45733;52.668;6.860;2023-02-01T05:26:23;6.60;99.90
59857;DHT22;45733;52.668;6.860;2023-02-01T05:29:02;6.50;99.90
59857;DHT22;45733;52.668;6.860;2023-02-01T05:31:32;6.40;99.90
59857;DHT22;45733;52.668;6.860;2023-02-01T05:33:57;6.40;99.90
59857;DHT22;45733;52.668;6.860;2023-02-01T05:36:23;6.50;99.90
59857;DHT22;45733;52.668;6.860;2023-02-01T05:38:49;6.50;99.90
59857;DHT22;45733;52.668;6.860;2023-02-01T05:41:30;6.50;99.90
59857;DHT22;45733;52.668;6.860;2023-02-01T05:46:46;6.50;99.90
59857;DHT22;45733;52.668;6.860;2023-02-01T05:49:15;6.60;99.90
59857;DHT22;45733;52.668;6.860;2023-02-01T05:54:45;6.70;99.90
59857;DHT22;45733;52.668;6.860;2023-02-01T05:57:40;6.70;99.90
59857;DHT22;45733;52.668;6.860;2023-02-01T06:00:10;6.70;99.90
59857;DHT22;45733;52.668;6.860;2023-02-01T06:02:39;6.60;99.90
59857;DHT22;45733;52.668;6.860;2023-02-01T06:05:12;6.60;99.90
59857;DHT22;45733;52.668;6.860;2023-02-01T06:07:52;6.70;99.90
59857;DHT22;45733;52.668;6.860;2023-02-01T06:10:18;6.70;99.90
59857;DHT22;45733;52.668;6.860;2023-02-01T06:13:14;6.70;99.90
59857;DHT22;45733;52.668;6.860;2023-02-01T06:19:04;6.80;99.90
59857;DHT22;45733;52.668;6.860;2023-02-01T06:21:36;6.80;99.90
59857;DHT22;45733;52.668;6.860;2023-02-01T06:24:17;6.80;99.90
59857;DHT22;45733;52.668;6.860;2023-02-01T06:26:48;6.80;99.90
59857;DHT22;45733;52.668;6.860;2023-02-01T06:29:14;6.80;99.90
59857;DHT22;45733;52.668;6.860;2023-02-01T06:31:42;6.90;99.90
59857;DHT22;45733;52.668;6.860;2023-02-01T06:36:59;6.90;99.90
59857;DHT22;45733;52.668;6.860;2023-02-01T06:39:25;7.00;99.90
59857;DHT22;45733;52.668;6.860;2023-02-01T06:41:53;6.90;99.90
59857;DHT22;45733;52.668;6.860;2023-02-01T06:44:21;6.90;99.90
59857;DHT22;45733;52.668;6.860;2023-02-01T06:46:47;7.00;99.90
59857;DHT22;45733;52.668;6.860;2023-02-01T06:49:13;6.90;99.90
59857;DHT22;45733;52.668;6.860;2023-02-01T06:51:50;7.00;99.90
59857;DHT22;45733;52.668;6.860;2023-02-01T06:54:18;7.00;99.90
59857;DHT22;45733;52.668;6.860;2023-02-01T06:56:52;7.00;99.90
59857;DHT22;45733;52.668;6.860;2023-02-01T06:59:57;6.90;99.90
59857;DHT22;45733;52.668;6.860;2023-02-01T07:02:24;7.00;99.90
59857;DHT22;45733;52.668;6.860;2023-02-01T07:04:57;6.90;99.90
59857;DHT22;45733;52.668;6.860;2023-02-01T07:07:26;6.90;99.90
59857;DHT22;45733;52.668;6.860;2023-02-01T07:09:51;7.00;99.90
59857;DHT22;45733;52.668;6.860;2023-02-01T07:12:21;7.00;99.90
59857;DHT22;45733;52.668;6.860;2023-02-01T07:14:50;7.00;99.90
59857;DHT22;45733;52.668;6.860;2023-02-01T07:17:16;7.00;99.90
59857;DHT22;45733;52.668;6.860;2023-02-01T07:20:02;7.10;99.90
59857;DHT22;45733;52.668;6.860;2023-02-01T07:22:31;7.00;99.90
59857;DHT22;45733;52.668;6.860;2023-02-01T07:25:02;7.10;99.90
59857;DHT22;45733;52.668;6.860;2023-02-01T07:27:28;7.10;99.90
59857;DHT22;45733;52.668;6.860;2023-02-01T07:29:54;7.10;99.90
59857;DHT22;45733;52.668;6.860;2023-02-01T07:32:28;7.10;99.90
59857;DHT22;45733;52.668;6.860;2023-02-01T07:35:08;7.10;99.90
59857;DHT22;45733;52.668;6.860;2023-02-01T07:37:37;7.10;99.90
59857;DHT22;45733;52.668;6.860;2023-02-01T07:40:09;7.10;99.90
59857;DHT22;45733;52.668;6.860;2023-02-01T07:42:35;7.00;99.90
59857;DHT22;45733;52.668;6.860;2023-02-01T07:45:04;7.10;99.90
59857;DHT22;45733;52.668;6.860;2023-02-01T07:47:40;7.00;99.90
59857;DHT22;45733;52.668;6.860;2023-02-01T07:50:06;7.00;99.90
59857;DHT22;45733;52.668;6.860;2023-02-01T07:52:38;7.00;99.90
59857;DHT22;45733;52.668;6.860;2023-02-01T07:55:09;7.00;99.90
59857;DHT22;45733;52.668;6.860;2023-02-01T07:57:43;7.10;99.90
59857;DHT22;45733;52.668;6.860;2023-02-01T08:00:09;7.10;99.90
59857;DHT22;45733;52.668;6.860;2023-02-01T08:03:03;7.10;99.90
59857;DHT22;45733;52.668;6.860;2023-02-01T08:05:56;7.10;99.90
59857;DHT22;45733;52.668;6.860;2023-02-01T08:08:22;7.10;99.90
59857;DHT22;45733;52.668;6.860;2023-02-01T08:10:49;7.10;99.90
59857;DHT22;45733;52.668;6.860;2023-02-01T08:13:20;7.20;99.90
59857;DHT22;45733;52.668;6.860;2023-02-01T08:15:45;7.10;99.90
59857;DHT22;45733;52.668;6.860;2023-02-01T08:18:11;7.10;99.90
59857;DHT22;45733;52.668;6.860;2023-02-01T08:20:55;7.10;99.90
59857;DHT22;45733;52.668;6.860;2023-02-01T08:23:21;7.10;99.90
59857;DHT22;45733;52.668;6.860;2023-02-01T08:25:50;7.10;99.90
59857;DHT22;45733;52.668;6.860;2023-02-01T08:28:29;7.10;99.90
59857;DHT22;45733;52.668;6.860;2023-02-01T08:30:55;7.10;99.90
59857;DHT22;45733;52.668;6.860;2023-02-01T08:33:24;7.00;99.90
59857;DHT22;45733;52.668;6.860;2023-02-01T08:35:50;7.00;99.90
59857;DHT22;45733;52.668;6.860;2023-02-01T08:38:16;7.10;99.90
59857;DHT22;45733;52.668;6.860;2023-02-01T08:40:44;7.10;99.90
59857;DHT22;45733;52.668;6.860;2023-02-01T08:43:12;7.20;99.90
59857;DHT22;45733;52.668;6.860;2023-02-01T08:45:37;7.20;99.90
59857;DHT22;45733;52.668;6.860;2023-02-01T08:48:14;7.30;99.90
59857;DHT22;45733;52.668;6.860;2023-02-01T08:50:42;7.20;99.90
59857;DHT22;45733;52.668;6.860;2023-02-01T08:53:17;7.30;99.90
59857;DHT22;45733;52.668;6.860;2023-02-01T08:55:45;7.20;99.90
59857;DHT22;45733;52.668;6.860;2023-02-01T08:58:10;7.30;99.90
59857;DHT22;45733;52.668;6.860;2023-02-01T09:00:43;7.30;99.90
59857;DHT22;45733;52.668;6.860;2023-02-01T09:03:11;7.30;99.90
59857;DHT22;45733;52.668;6.860;2023-02-01T09:05:46;7.30;99.90
59857;DHT22;45733;52.668;6.860;2023-02-01T09:08:13;7.30;99.90
59857;DHT22;45733;52.668;6.860;2023-02-01T09:10:43;7.30;99.90
59857;DHT22;45733;52.668;6.860;2023-02-01T09:13:12;7.30;99.90
59857;DHT22;45733;52.668;6.860;2023-02-01T09:15:37;7.40;99.90
59857;DHT22;45733;52.668;6.860;2023-02-01T09:18:06;7.40;99.90
59857;DHT22;45733;52.668;6.860;2023-02-01T09:20:32;7.40;99.90
59857;DHT22;45733;52.668;6.860;2023-02-01T09:22:58;7.40;99.90
59857;DHT22;45733;52.668;6.860;2023-02-01T09:25:26;7.40;99.90
59857;DHT22;45733;52.668;6.860;2023-02-01T09:27:52;7.50;99.90
59857;DHT22;45733;52.668;6.860;2023-02-01T09:30:18;7.50;99.90
59857;DHT22;45733;52.668;6.860;2023-02-01T09:32:44;7.40;99.90
59857;DHT22;45733;52.668;6.860;2023-02-01T09:35:09;7.40;99.90
59857;DHT22;45733;52.668;6.860;2023-02-01T09:37:35;7.50;99.90
59857;DHT22;45733;52.668;6.860;2023-02-01T09:40:03;7.50;99.90
59857;DHT22;45733;52.668;6.860;2023-02-01T09:42:45;7.50;99.90
59857;DHT22;45733;52.668;6.860;2023-02-01T09:48:29;7.40;99.90
59857;DHT22;45733;52.668;6.860;2023-02-01T09:51:29;7.40;99.90
59857;DHT22;45733;52.668;6.860;2023-02-01T09:54:08;7.30;99.90
59857;DHT22;45733;52.668;6.860;2023-02-01T09:56:44;7.40;99.90
59857;DHT22;45733;52.668;6.860;2023-02-01T10:02:21;7.40;99.90
59857;DHT22;45733;52.668;6.860;2023-02-01T10:05:03;7.40;99.90
59857;DHT22;45733;52.668;6.860;2023-02-01T10:08:04;7.40;99.90
59857;DHT22;45733;52.668;6.860;2023-02-01T10:10:45;7.40;99.90
59857;DHT22;45733;52.668;6.860;2023-02-01T10:13:31;7.40;99.90
59857;DHT22;45733;52.668;6.860;2023-02-01T10:27:43;7.10;99.90
59857;DHT22;45733;52.668;6.860;2023-02-01T10:30:26;7.00;99.90
59857;DHT22;45733;52.668;6.860;2023-02-01T10:32:59;7.00;99.90
59857;DHT22;45733;52.668;6.860;2023-02-01T10:35:36;6.90;99.90
59857;DHT22;45733;52.668;6.860;2023-02-01T10:38:18;6.90;99.90
59857;DHT22;45733;52.668;6.860;2023-02-01T10:40:47;6.90;99.90
59857;DHT22;45733;52.668;6.860;2023-02-01T10:43:14;6.90;99.90
59857;DHT22;45733;52.668;6.860;2023-02-01T10:45:51;6.80;99.90
59857;DHT22;45733;52.668;6.860;2023-02-01T10:48:35;6.90;99.90
59857;DHT22;45733;52.668;6.860;2023-02-01T10:54:08;6.90;99.90
59857;DHT22;45733;52.668;6.860;2023-02-01T10:56:43;7.00;99.90
59857;DHT22;45733;52.668;6.860;2023-02-01T10:59:20;7.00;99.90
59857;DHT22;45733;52.668;6.860;2023-02-01T11:02:05;7.00;99.90
59857;DHT22;45733;52.668;6.860;2023-02-01T11:04:42;7.00;99.90
59857;DHT22;45733;52.668;6.860;2023-02-01T11:07:20;6.90;99.90
59857;DHT22;45733;52.668;6.860;2023-02-01T11:09:57;6.90;99.90
59857;DHT22;45733;52.668;6.860;2023-02-01T11:12:34;6.90;99.90
59857;DHT22;45733;52.668;6.860;2023-02-01T11:15:20;6.80;99.90
59857;DHT22;45733;52.668;6.860;2023-02-01T11:18:36;6.80;99.90
59857;DHT22;45733;52.668;6.860;2023-02-01T11:21:09;6.80;99.90
59857;DHT22;45733;52.668;6.860;2023-02-01T11:23:44;6.80;99.90
59857;DHT22;45733;52.668;6.860;2023-02-01T11:26:22;6.90;99.90
59857;DHT22;45733;52.668;6.860;2023-02-01T11:31:26;6.90;99.90
59857;DHT22;45733;52.668;6.860;2023-02-01T11:33:59;6.90;99.90
59857;DHT22;45733;52.668;6.860;2023-02-01T11:36:32;6.90;99.90
59857;DHT22;45733;52.668;6.860;2023-02-01T11:42:16;7.10;99.90
59857;DHT22;45733;52.668;6.860;2023-02-01T11:48:16;6.90;99.90
59857;DHT22;45733;52.668;6.860;2023-02-01T12:00:09;7.10;99.90
59857;DHT22;45733;52.668;6.860;2023-02-01T12:06:34;7.10;99.90
59857;DHT22;45733;52.668;6.860;2023-02-01T12:11:45;7.10;99.90
59857;DHT22;45733;52.668;6.860;2023-02-01T12:29:03;7.30;99.90
59857;DHT22;45733;52.668;6.860;2023-02-01T12:32:10;7.40;99.90
59857;DHT22;45733;52.668;6.860;2023-02-01T12:47:00;7.80;99.90
59857;DHT22;45733;52.668;6.860;2023-02-01T12:56:37;7.50;99.90
59857;DHT22;45733;52.668;6.860;2023-02-01T12:59:10;7.60;99.90
59857;DHT22;45733;52.668;6.860;2023-02-01T13:04:38;7.60;99.90
59857;DHT22;45733;52.668;6.860;2023-02-01T13:07:45;7.60;99.90
59857;DHT22;45733;52.668;6.860;2023-02-01T13:10:46;7.70;99.90
59857;DHT22;45733;52.668;6.860;2023-02-01T13:13:45;7.50;99.90
59857;DHT22;45733;52.668;6.860;2023-02-01T13:16:51;7.70;99.90
59857;DHT22;45733;52.668;6.860;2023-02-01T13:25:53;7.70;99.90
59857;DHT22;45733;52.668;6.860;2023-02-01T13:28:23;7.60;99.90
59857;DHT22;45733;52.668;6.860;2023-02-01T13:33:33;7.50;99.90
59857;DHT22;45733;52.668;6.860;2023-02-01T13:43:29;7.70;99.90
59857;DHT22;45733;52.668;6.860;2023-02-01T13:46:20;7.60;99.90
59857;DHT22;45733;52.668;6.860;2023-02-01T13:48:52;7.70;99.90
59857;DHT22;45733;52.668;6.860;2023-02-01T13:51:35;7.70;99.90
59857;DHT22;45733;52.668;6.860;2023-02-01T13:54:39;7.70;99.90
59857;DHT22;45733;52.668;6.860;2023-02-01T13:57:40;7.80;99.90
59857;DHT22;45733;52.668;6.860;2023-02-01T14:03:42;8.00;99.90
59857;DHT22;45733;52.668;6.860;2023-02-01T14:09:32;7.90;99.90
59857;DHT22;45733;52.668;6.860;2023-02-01T14:17:48;8.00;99.90
59857;DHT22;45733;52.668;6.860;2023-02-01T14:20:40;8.00;99.90
59857;DHT22;45733;52.668;6.860;2023-02-01T14:23:22;8.20;99.90
59857;DHT22;45733;52.668;6.860;2023-02-01T14:26:06;8.20;99.90
59857;DHT22;45733;52.668;6.860;2023-02-01T14:28:36;8.30;99.90
59857;DHT22;45733;52.668;6.860;2023-02-01T14:31:40;8.40;99.90
59857;DHT22;45733;52.668;6.860;2023-02-01T14:34:19;8.30;99.90
59857;DHT22;45733;52.668;6.860;2023-02-01T14:37:00;8.40;99.90
59857;DHT22;45733;52.668;6.860;2023-02-01T14:42:48;8.30;99.90
59857;DHT22;45733;52.668;6.860;2023-02-01T14:51:01;8.40;99.90
59857;DHT22;45733;52.668;6.860;2023-02-01T14:53:36;8.40;99.90
59857;DHT22;45733;52.668;6.860;2023-02-01T14:59:25;8.50;99.90
59857;DHT22;45733;52.668;6.860;2023-02-01T15:02:07;8.60;99.90
59857;DHT22;45733;52.668;6.860;2023-02-01T15:04:53;8.50;99.90
59857;DHT22;45733;52.668;6.860;2023-02-01T15:07:46;8.40;99.90
59857;DHT22;45733;52.668;6.860;2023-02-01T15:10:15;8.40;99.90
59857;DHT22;45733;52.668;6.860;2023-02-01T15:12:44;8.30;99.90
59857;DHT22;45733;52.668;6.860;2023-02-01T15:15:31;8.30;99.90
59857;DHT22;45733;52.668;6.860;2023-02-01T15:18:01;8.30;99.90
59857;DHT22;45733;52.668;6.860;2023-02-01T15:20:31;8.30;99.90
59857;DHT22;45733;52.668;6.860;2023-02-01T15:26:32;8.20;99.90
59857;DHT22;45733;52.668;6.860;2023-02-01T15:29:01;8.20;99.90
59857;DHT22;45733;52.668;6.860;2023-02-01T15:31:42;8.20;99.90
59857;DHT22;45733;52.668;6.860;2023-02-01T15:34:08;8.20;99.90
59857;DHT22;45733;52.668;6.860;2023-02-01T15:36:38;8.20;99.90
59857;DHT22;45733;52.668;6.860;2023-02-01T15:39:22;8.20;99.90
59857;DHT22;45733;52.668;6.860;2023-02-01T15:41:59;8.20;99.90
59857;DHT22;45733;52.668;6.860;2023-02-01T15:44:38;8.20;99.90
59857;DHT22;45733;52.668;6.860;2023-02-01T15:47:29;8.20;99.90
59857;DHT22;45733;52.668;6.860;2023-02-01T15:50:16;8.20;99.90
59857;DHT22;45733;52.668;6.860;2023-02-01T15:52:52;8.20;99.90
59857;DHT22;45733;52.668;6.860;2023-02-01T15:55:19;8.10;99.90
59857;DHT22;45733;52.668;6.860;2023-02-01T15:57:46;8.00;99.90
59857;DHT22;45733;52.668;6.860;2023-02-01T16:00:28;8.10;99.90
59857;DHT22;45733;52.668;6.860;2023-02-01T16:03:20;8.10;99.90
59857;DHT22;45733;52.668;6.860;2023-02-01T16:05:58;8.10;99.90
59857;DHT22;45733;52.668;6.860;2023-02-01T16:08:30;8.10;99.90
59857;DHT22;45733;52.668;6.860;2023-02-01T16:11:58;8.00;99.90
59857;DHT22;45733;52.668;6.860;2023-02-01T16:14:25;8.00;99.90
59857;DHT22;45733;52.668;6.860;2023-02-01T16:17:00;8.00;99.90
59857;DHT22;45733;52.668;6.860;2023-02-01T16:19:40;7.90;99.90
59857;DHT22;45733;52.668;6.860;2023-02-01T16:22:19;7.90;99.90
59857;DHT22;45733;52.668;6.860;2023-02-01T16:24:44;7.90;99.90
59857;DHT22;45733;52.668;6.860;2023-02-01T16:27:10;7.80;99.90
59857;DHT22;45733;52.668;6.860;2023-02-01T16:29:39;7.80;99.90
59857;DHT22;45733;52.668;6.860;2023-02-01T16:32:21;7.80;99.90
59857;DHT22;45733;52.668;6.860;2023-02-01T16:34:58;7.80;99.90
59857;DHT22;45733;52.668;6.860;2023-02-01T16:37:27;7.90;99.90
59857;DHT22;45733;52.668;6.860;2023-02-01T16:40:00;7.80;99.90
59857;DHT22;45733;52.668;6.860;2023-02-01T16:42:32;7.80;99.90
59857;DHT22;45733;52.668;6.860;2023-02-01T16:45:14;7.80;99.90
59857;DHT22;45733;52.668;6.860;2023-02-01T16:47:45;7.80;99.90
59857;DHT22;45733;52.668;6.860;2023-02-01T16:50:21;7.80;99.90
59857;DHT22;45733;52.668;6.860;2023-02-01T16:52:47;7.70;99.90
59857;DHT22;45733;52.668;6.860;2023-02-01T16:55:19;7.70;99.90
59857;DHT22;45733;52.668;6.860;2023-02-01T16:57:53;7.60;99.90
59857;DHT22;45733;52.668;6.860;2023-02-01T17:00:22;7.60;99.90
59857;DHT22;45733;52.668;6.860;2023-02-01T17:02:57;7.50;99.90
59857;DHT22;45733;52.668;6.860;2023-02-01T17:05:23;7.60;99.90
59857;DHT22;45733;52.668;6.860;2023-02-01T17:08:07;7.50;99.90
59857;DHT22;45733;52.668;6.860;2023-02-01T17:10:56;7.40;99.90
59857;DHT22;45733;52.668;6.860;2023-02-01T17:13:23;7.40;99.90
59857;DHT22;45733;52.668;6.860;2023-02-01T17:16:01;7.40;99.90
59857;DHT22;45733;52.668;6.860;2023-02-01T17:18:32;7.30;99.90
59857;DHT22;45733;52.668;6.860;2023-02-01T17:21:12;7.30;99.90
59857;DHT22;45733;52.668;6.860;2023-02-01T17:23:46;7.30;99.90
59857;DHT22;45733;52.668;6.860;2023-02-01T17:26:23;7.30;99.90
59857;DHT22;45733;52.668;6.860;2023-02-01T17:28:52;7.30;99.90
59857;DHT22;45733;52.668;6.860;2023-02-01T17:31:27;7.20;99.90
59857;DHT22;45733;52.668;6.860;2023-02-01T17:33:53;7.20;99.90
59857;DHT22;45733;52.668;6.860;2023-02-01T17:36:29;7.20;99.90
59857;DHT22;45733;52.668;6.860;2023-02-01T17:39:06;7.30;99.90
59857;DHT22;45733;52.668;6.860;2023-02-01T17:41:36;7.20;99.90
59857;DHT22;45733;52.668;6.860;2023-02-01T17:44:07;7.20;99.90
59857;DHT22;45733;52.668;6.860;2023-02-01T17:47:27;7.20;99.90
59857;DHT22;45733;52.668;6.860;2023-02-01T17:49:52;7.20;99.90
59857;DHT22;45733;52.668;6.860;2023-02-01T17:52:25;7.10;99.90
59857;DHT22;45733;52.668;6.860;2023-02-01T17:54:53;7.10;99.90
59857;DHT22;45733;52.668;6.860;2023-02-01T17:57:22;7.10;99.90
59857;DHT22;45733;52.668;6.860;2023-02-01T18:00:03;7.10;99.90
59857;DHT22;45733;52.668;6.860;2023-02-01T18:02:39;7.10;99.90
59857;DHT22;45733;52.668;6.860;2023-02-01T18:05:24;7.10;99.90
59857;DHT22;45733;52.668;6.860;2023-02-01T18:08:42;7.10;99.90
59857;DHT22;45733;52.668;6.860;2023-02-01T18:11:43;7.00;99.90
59857;DHT22;45733;52.668;6.860;2023-02-01T18:14:28;7.00;99.90
59857;DHT22;45733;52.668;6.860;2023-02-01T18:17:04;7.00;99.90
59857;DHT22;45733;52.668;6.860;2023-02-01T18:19:59;6.90;99.90
59857;DHT22;45733;52.668;6.860;2023-02-01T18:22:36;7.00;99.90
59857;DHT22;45733;52.668;6.860;2023-02-01T18:25:23;6.90;99.90
59857;DHT22;45733;52.668;6.860;2023-02-01T18:27:53;6.90;99.90
59857;DHT22;45733;52.668;6.860;2023-02-01T18:30:27;6.90;99.90
59857;DHT22;45733;52.668;6.860;2023-02-01T18:32:56;6.80;99.90
59857;DHT22;45733;52.668;6.860;2023-02-01T18:35:24;6.80;99.90
59857;DHT22;45733;52.668;6.860;2023-02-01T18:37:51;6.70;99.90
59857;DHT22;45733;52.668;6.860;2023-02-01T18:40:36;6.80;99.90
59857;DHT22;45733;52.668;6.860;2023-02-01T18:43:50;6.80;99.90
59857;DHT22;45733;52.668;6.860;2023-02-01T18:46:24;6.80;99.90
59857;DHT22;45733;52.668;6.860;2023-02-01T18:49:02;6.80;99.90
59857;DHT22;45733;52.668;6.860;2023-02-01T18:51:49;6.80;99.90
59857;DHT22;45733;52.668;6.860;2023-02-01T18:54:17;6.70;99.90
59857;DHT22;45733;52.668;6.860;2023-02-01T18:57:11;6.80;99.90
59857;DHT22;45733;52.668;6.860;2023-02-01T18:59:40;6.80;99.90
59857;DHT22;45733;52.668;6.860;2023-02-01T19:02:11;6.80;99.90
59857;DHT22;45733;52.668;6.860;2023-02-01T19:05:00;6.90;99.90
59857;DHT22;45733;52.668;6.860;2023-02-01T19:07:47;6.80;99.90
59857;DHT22;45733;52.668;6.860;2023-02-01T19:10:17;6.80;99.90
59857;DHT22;45733;52.668;6.860;2023-02-01T19:13:00;6.70;99.90
59857;DHT22;45733;52.668;6.860;2023-02-01T19:18:53;6.60;99.90
59857;DHT22;45733;52.668;6.860;2023-02-01T19:21:21;6.60;99.90
59857;DHT22;45733;52.668;6.860;2023-02-01T19:24:03;6.60;99.90
59857;DHT22;45733;52.668;6.860;2023-02-01T19:26:44;6.70;99.90
59857;DHT22;45733;52.668;6.860;2023-02-01T19:29:46;6.70;99.90
59857;DHT22;45733;52.668;6.860;2023-02-01T19:32:15;6.60;99.90
59857;DHT22;45733;52.668;6.860;2023-02-01T19:34:44;6.60;99.90
59857;DHT22;45733;52.668;6.860;2023-02-01T19:37:14;6.50;99.90
59857;DHT22;45733;52.668;6.860;2023-02-01T19:39:43;6.50;99.90
59857;DHT22;45733;52.668;6.860;2023-02-01T19:42:20;6.40;99.90
59857;DHT22;45733;52.668;6.860;2023-02-01T19:45:09;6.40;99.90
59857;DHT22;45733;52.668;6.860;2023-02-01T19:47:41;6.40;99.90
59857;DHT22;45733;52.668;6.860;2023-02-01T19:50:18;6.30;99.90
59857;DHT22;45733;52.668;6.860;2023-02-01T19:52:47;6.30;99.90
59857;DHT22;45733;52.668;6.860;2023-02-01T19:55:13;6.30;99.90
59857;DHT22;45733;52.668;6.860;2023-02-01T19:57:52;6.30;99.90
59857;DHT22;45733;52.668;6.860;2023-02-01T20:00:21;6.20;99.90
59857;DHT22;45733;52.668;6.860;2023-02-01T20:03:12;6.30;99.90